createdAt,value
2022-08-30T00:01:05.421Z,54.70
2022-08-30T00:03:46.596Z,55.17
2022-08-30T00:06:15.779Z,55.11
2022-08-30T00:08:43.497Z,55.15
2022-08-30T00:11:13.275Z,55.34
2022-08-30T00:13:42.770Z,55.37
2022-08-30T00:16:10.155Z,55.44
2022-08-30T00:18:37.105Z,55.13
2022-08-30T00:21:05.164Z,55.39
2022-08-30T00:23:32.480Z,54.90
2022-08-30T00:25:59.841Z,54.91
2022-08-30T00:28:26.428Z,55.45
2022-08-30T00:30:53.250Z,55.11
2022-08-30T00:33:20.094Z,55.17
2022-08-30T00:35:46.686Z,55.20
2022-08-30T00:38:14.061Z,55.05
2022-08-30T00:40:44.303Z,54.98
2022-08-30T00:43:20.080Z,55.16
2022-08-30T00:45:47.208Z,55.09
2022-08-30T00:48:14.040Z,55.03
2022-08-30T00:50:46.545Z,55.41
2022-08-30T00:53:20.108Z,55.09
2022-08-30T00:55:48.951Z,55.16
2022-08-30T00:58:21.760Z,55.34
2022-08-30T01:00:51.795Z,55.38
2022-08-30T01:03:18.565Z,55.57
2022-08-30T01:05:46.414Z,55.58
2022-08-30T01:08:13.033Z,55.23
2022-08-30T01:10:39.904Z,55.92
2022-08-30T01:13:06.629Z,55.96
2022-08-30T01:15:34.423Z,55.64
2022-08-30T01:18:02.254Z,55.66
2022-08-30T01:20:49.979Z,55.51
2022-08-30T01:23:19.739Z,55.29
2022-08-30T01:25:50.450Z,55.76
2022-08-30T01:28:28.892Z,55.29
2022-08-30T01:30:56.329Z,55.72
2022-08-30T01:33:23.122Z,55.30
2022-08-30T01:36:02.562Z,55.32
2022-08-30T01:38:38.348Z,55.68
2022-08-30T01:41:13.535Z,55.44
2022-08-30T01:43:40.431Z,55.61
2022-08-30T01:46:08.255Z,55.55
2022-08-30T01:48:35.021Z,55.59
2022-08-30T01:51:02.361Z,55.81
2022-08-30T01:53:29.131Z,55.33
2022-08-30T01:55:56.133Z,55.95
2022-08-30T01:58:23.363Z,55.45
2022-08-30T02:00:51.398Z,55.49
2022-08-30T02:03:18.303Z,55.57
2022-08-30T02:05:45.361Z,55.45
2022-08-30T02:08:11.964Z,55.54
2022-08-30T02:10:38.582Z,55.68
2022-08-30T02:13:05.288Z,55.72
2022-08-30T02:15:41.221Z,55.72
2022-08-30T02:18:10.784Z,55.64
2022-08-30T02:20:39.577Z,55.83
2022-08-30T02:23:06.327Z,55.38
2022-08-30T02:25:33.007Z,55.71
2022-08-30T02:27:59.612Z,55.72
2022-08-30T02:30:26.984Z,55.47
2022-08-30T02:32:53.602Z,55.32
2022-08-30T02:35:20.241Z,55.50
2022-08-30T02:37:46.830Z,55.50
2022-08-30T02:40:13.527Z,55.81
2022-08-30T02:42:41.706Z,55.80
2022-08-30T02:45:08.892Z,55.34
2022-08-30T02:47:37.171Z,55.79
2022-08-30T02:50:05.820Z,55.93
2022-08-30T02:52:32.524Z,55.95
2022-08-30T02:54:59.797Z,56.08
2022-08-30T02:57:26.426Z,55.80
2022-08-30T02:59:53.493Z,55.83
2022-08-30T03:02:22.193Z,56.23
2022-08-30T03:04:49.298Z,55.58
2022-08-30T03:07:16.354Z,56.07
2022-08-30T03:09:43.033Z,55.86
2022-08-30T03:12:10.320Z,55.93
2022-08-30T03:14:38.339Z,56.27
2022-08-30T03:17:07.086Z,55.98
2022-08-30T03:19:39.502Z,56.02
2022-08-30T03:22:06.926Z,55.96
2022-08-30T03:24:34.647Z,56.08
2022-08-30T03:27:01.265Z,56.01
2022-08-30T03:29:29.721Z,55.70
2022-08-30T03:31:57.534Z,55.97
2022-08-30T03:34:25.382Z,56.05
2022-08-30T03:36:53.549Z,56.02
2022-08-30T03:39:22.690Z,55.83
2022-08-30T03:41:49.539Z,56.18
2022-08-30T03:44:16.298Z,56.31
2022-08-30T03:46:42.966Z,56.36
2022-08-30T03:49:09.700Z,56.26
2022-08-30T03:51:36.298Z,55.58
2022-08-30T03:54:03.016Z,56.04
2022-08-30T03:56:29.712Z,56.06
2022-08-30T03:58:56.312Z,55.53
2022-08-30T04:01:23.004Z,55.97
2022-08-30T04:03:50.276Z,56.13
2022-08-30T04:06:16.915Z,56.52
2022-08-30T04:08:44.828Z,56.02
2022-08-30T04:11:12.754Z,55.97
2022-08-30T04:13:39.366Z,55.75
2022-08-30T04:16:06.223Z,56.26
2022-08-30T04:18:33.042Z,55.51
2022-08-30T04:20:59.652Z,55.89
2022-08-30T04:23:26.266Z,56.13
2022-08-30T04:25:52.882Z,55.53
2022-08-30T04:28:19.520Z,56.25
2022-08-30T04:30:46.638Z,56.00
2022-08-30T04:33:15.098Z,56.07
2022-08-30T04:35:44.262Z,55.75
2022-08-30T04:38:11.873Z,56.04
2022-08-30T04:40:38.918Z,55.75
2022-08-30T04:43:05.562Z,56.15
2022-08-30T04:45:32.334Z,55.85
2022-08-30T04:47:59.019Z,55.65
2022-08-30T04:50:26.131Z,55.40
2022-08-30T04:52:52.734Z,55.74
2022-08-30T04:55:20.503Z,55.26
2022-08-30T04:57:47.499Z,55.53
2022-08-30T05:00:14.582Z,55.36
2022-08-30T05:02:41.487Z,55.50
2022-08-30T05:05:28.481Z,55.54
2022-08-30T05:07:55.327Z,56.04
2022-08-30T05:10:22.110Z,55.55
2022-08-30T05:12:48.737Z,55.89
2022-08-30T05:15:15.444Z,55.68
2022-08-30T05:17:42.461Z,55.98
2022-08-30T05:20:11.241Z,55.48
2022-08-30T05:22:39.952Z,55.70
2022-08-30T05:25:08.274Z,55.73
2022-08-30T05:27:37.200Z,55.17
2022-08-30T05:30:06.322Z,55.13
2022-08-30T05:32:33.062Z,55.30
2022-08-30T05:34:59.670Z,55.51
2022-08-30T05:37:26.305Z,54.99
2022-08-30T05:39:53.332Z,55.47
2022-08-30T05:42:20.197Z,55.32
2022-08-30T05:44:52.783Z,55.36
2022-08-30T05:47:20.062Z,55.47
2022-08-30T05:49:47.279Z,55.53
2022-08-30T05:52:15.522Z,55.85
2022-08-30T05:54:42.270Z,55.51
2022-08-30T05:57:08.863Z,55.73
2022-08-30T05:59:35.517Z,55.61
2022-08-30T06:02:02.149Z,55.44
2022-08-30T06:04:29.848Z,55.40
2022-08-30T06:06:56.473Z,55.08
2022-08-30T06:09:23.070Z,53.99
2022-08-30T06:11:49.687Z,53.80
2022-08-30T06:14:16.834Z,53.25
2022-08-30T06:16:47.160Z,53.66
2022-08-30T06:19:15.408Z,53.58
2022-08-30T06:21:43.263Z,53.67
2022-08-30T06:24:11.374Z,53.27
2022-08-30T06:26:41.452Z,52.98
2022-08-30T06:29:09.307Z,52.91
2022-08-30T06:31:36.141Z,52.90
2022-08-30T06:34:03.551Z,52.71
2022-08-30T06:36:30.394Z,52.58
2022-08-30T06:38:58.900Z,52.57
2022-08-30T06:41:28.430Z,52.47
2022-08-30T06:43:56.116Z,52.55
2022-08-30T06:46:32.619Z,52.43
2022-08-30T06:49:00.400Z,52.70
2022-08-30T06:51:30.550Z,52.78
2022-08-30T06:53:58.797Z,52.54
2022-08-30T06:56:27.609Z,52.66
2022-08-30T06:58:55.001Z,52.94
2022-08-30T07:01:25.597Z,52.77
2022-08-30T07:03:53.620Z,53.04
2022-08-30T07:06:20.784Z,52.89
2022-08-30T07:08:48.076Z,53.04
2022-08-30T07:11:15.013Z,53.01
2022-08-30T07:13:41.662Z,53.08
2022-08-30T07:16:15.064Z,53.00
2022-08-30T07:18:50.837Z,53.26
2022-08-30T07:21:32.099Z,53.05
2022-08-30T07:23:59.839Z,53.51
2022-08-30T07:26:35.479Z,53.28
2022-08-30T07:29:03.251Z,53.31
2022-08-30T07:31:30.387Z,53.18
2022-08-30T07:33:57.396Z,53.76
2022-08-30T07:36:25.036Z,53.82
2022-08-30T07:38:52.483Z,53.55
2022-08-30T07:41:22.643Z,53.71
2022-08-30T07:43:49.374Z,53.27
2022-08-30T07:46:16.471Z,53.24
2022-08-30T07:48:44.222Z,52.73
2022-08-30T07:51:13.182Z,52.86
2022-08-30T07:53:40.193Z,53.16
2022-08-30T07:56:07.426Z,53.28
2022-08-30T07:58:34.624Z,53.60
2022-08-30T08:01:02.073Z,53.18
2022-08-30T08:03:29.813Z,52.73
2022-08-30T08:05:57.213Z,52.46
2022-08-30T08:08:23.886Z,53.40
2022-08-30T08:10:50.533Z,52.72
2022-08-30T08:13:17.170Z,52.82
2022-08-30T08:15:44.270Z,53.03
2022-08-30T08:18:11.070Z,53.11
2022-08-30T08:20:37.836Z,52.99
2022-08-30T08:23:04.833Z,53.10
2022-08-30T08:25:31.709Z,52.90
2022-08-30T08:27:59.134Z,52.67
2022-08-30T08:30:25.797Z,53.13
2022-08-30T08:32:52.929Z,53.03
2022-08-30T08:35:20.209Z,52.46
2022-08-30T08:37:46.874Z,52.38
2022-08-30T08:40:18.670Z,52.25
2022-08-30T08:43:18.815Z,51.71
2022-08-30T08:46:17.531Z,52.00
2022-08-30T08:49:00.002Z,52.06
2022-08-30T08:51:51.030Z,51.95
2022-08-30T08:54:27.698Z,51.68
2022-08-30T08:56:54.715Z,51.42
2022-08-30T08:59:21.421Z,51.29
2022-08-30T09:01:50.791Z,51.01
2022-08-30T09:04:24.715Z,50.69
2022-08-30T09:07:00.895Z,50.08
2022-08-30T09:09:34.903Z,50.18
2022-08-30T09:12:01.999Z,50.28
2022-08-30T09:14:34.465Z,50.90
2022-08-30T09:17:10.863Z,50.97
2022-08-30T09:19:59.070Z,50.59
2022-08-30T09:22:40.579Z,50.45
2022-08-30T09:25:20.497Z,49.11
2022-08-30T09:27:49.676Z,48.24
2022-08-30T09:30:19.971Z,47.02
2022-08-30T09:32:58.428Z,47.14
2022-08-30T09:35:36.963Z,46.52
2022-08-30T09:38:06.838Z,46.85
2022-08-30T09:40:42.548Z,47.12
2022-08-30T09:43:17.994Z,45.93
2022-08-30T09:45:47.705Z,45.42
2022-08-30T09:48:33.127Z,45.01
2022-08-30T09:51:11.935Z,45.17
2022-08-30T09:54:19.224Z,44.30
2022-08-30T09:57:11.753Z,43.40
2022-08-30T09:59:51.413Z,42.80
2022-08-30T10:02:37.229Z,43.20
2022-08-30T10:05:15.793Z,44.48
2022-08-30T10:07:46.457Z,43.33
2022-08-30T10:10:31.471Z,42.91
2022-08-30T10:12:58.001Z,42.21
2022-08-30T10:15:41.066Z,41.48
2022-08-30T10:18:16.699Z,41.37
2022-08-30T10:21:07.164Z,41.38
2022-08-30T10:23:42.961Z,38.86
2022-08-30T10:26:42.776Z,37.31
2022-08-30T10:29:16.622Z,39.75
2022-08-30T10:31:53.166Z,41.76
2022-08-30T10:34:35.502Z,43.50
2022-08-30T10:37:13.653Z,44.05
2022-08-30T10:39:56.430Z,45.07
2022-08-30T10:42:27.098Z,45.36
2022-08-30T10:45:10.500Z,45.69
2022-08-30T10:48:41.722Z,46.25
2022-08-30T10:51:40.447Z,46.26
2022-08-30T10:54:16.427Z,46.42
2022-08-30T10:56:48.570Z,46.92
2022-08-30T10:59:18.385Z,47.36
2022-08-30T11:01:57.996Z,47.20
2022-08-30T11:04:33.889Z,47.19
2022-08-30T11:07:18.537Z,47.06
2022-08-30T11:10:00.286Z,39.55
2022-08-30T11:12:37.652Z,35.16
2022-08-30T11:15:26.216Z,36.15
2022-08-30T11:18:04.219Z,38.41
2022-08-30T11:20:34.570Z,40.63
2022-08-30T11:23:27.611Z,39.22
2022-08-30T11:26:03.778Z,38.67
2022-08-30T11:28:36.796Z,41.30
2022-08-30T11:31:35.201Z,42.18
2022-08-30T11:34:02.755Z,41.02
2022-08-30T11:36:37.552Z,40.98
2022-08-30T11:39:10.181Z,37.52
2022-08-30T11:41:47.969Z,32.43
2022-08-30T11:44:28.986Z,33.07
2022-08-30T11:46:59.208Z,34.28
2022-08-30T11:49:50.230Z,33.14
2022-08-30T11:52:56.877Z,30.15
2022-08-30T11:55:38.075Z,29.93
2022-08-30T11:58:30.167Z,32.67
2022-08-30T12:01:50.175Z,34.12
2022-08-30T12:04:34.685Z,35.11
2022-08-30T12:07:04.890Z,34.88
2022-08-30T12:09:34.278Z,35.55
2022-08-30T12:12:10.927Z,38.29
2022-08-30T12:14:41.207Z,40.16
2022-08-30T12:17:36.161Z,41.74
2022-08-30T12:20:05.980Z,42.86
2022-08-30T12:22:37.781Z,43.54
2022-08-30T12:25:16.921Z,44.11
2022-08-30T12:27:43.579Z,44.33
2022-08-30T12:30:10.819Z,45.04
2022-08-30T12:32:47.398Z,45.17
2022-08-30T12:35:23.845Z,45.70
2022-08-30T12:38:00.587Z,45.67
2022-08-30T12:40:31.097Z,44.81
2022-08-30T12:43:04.781Z,45.12
2022-08-30T12:45:44.182Z,44.92
2022-08-30T12:48:17.429Z,44.16
2022-08-30T12:51:07.306Z,43.48
2022-08-30T12:53:39.301Z,43.32
2022-08-30T12:56:15.413Z,43.34
2022-08-30T12:58:50.475Z,42.78
2022-08-30T13:01:32.382Z,42.33
2022-08-30T13:04:22.942Z,41.83
2022-08-30T13:06:52.236Z,41.85
2022-08-30T13:09:38.403Z,41.74
2022-08-30T13:12:09.788Z,41.98
2022-08-30T13:14:43.663Z,41.62
2022-08-30T13:17:19.122Z,42.18
2022-08-30T13:20:00.177Z,42.53
2022-08-30T13:22:57.510Z,42.79
2022-08-30T13:25:24.130Z,42.86
2022-08-30T13:27:50.795Z,43.03
2022-08-30T13:30:17.582Z,43.48
2022-08-30T13:32:45.272Z,43.14
2022-08-30T13:35:12.462Z,42.94
2022-08-30T13:37:47.298Z,43.45
2022-08-30T13:40:18.565Z,42.99
2022-08-30T13:42:45.369Z,42.76
2022-08-30T13:48:01.737Z,43.17
2022-08-30T13:50:28.404Z,43.57
2022-08-30T13:52:57.125Z,43.54
2022-08-30T13:55:23.953Z,43.97
2022-08-30T13:57:54.549Z,43.69
2022-08-30T14:00:23.504Z,44.09
2022-08-30T14:02:55.947Z,44.70
2022-08-30T14:05:49.240Z,44.96
2022-08-30T14:11:11.860Z,44.83
2022-08-30T14:14:14.787Z,44.75
2022-08-30T14:16:27.991Z,45.36
2022-08-30T14:18:56.151Z,45.49
2022-08-30T14:21:24.519Z,45.53
2022-08-30T14:23:52.664Z,45.58
2022-08-30T14:26:26.384Z,45.75
2022-08-30T14:28:59.252Z,45.11
2022-08-30T14:31:25.990Z,45.64
2022-08-30T14:33:53.077Z,45.39
2022-08-30T14:36:19.981Z,45.47
2022-08-30T14:38:48.482Z,45.56
2022-08-30T14:41:15.485Z,45.63
2022-08-30T14:43:42.206Z,45.12
2022-08-30T14:46:10.599Z,45.33
2022-08-30T14:48:38.714Z,45.07
2022-08-30T14:51:17.284Z,45.74
2022-08-30T14:53:45.106Z,45.35
2022-08-30T14:56:16.411Z,45.74
2022-08-30T14:58:43.491Z,45.71
2022-08-30T15:01:12.451Z,46.04
2022-08-30T15:03:40.690Z,45.52
2022-08-30T15:06:08.182Z,46.22
2022-08-30T15:08:36.737Z,45.21
2022-08-30T15:11:12.059Z,45.11
2022-08-30T15:13:40.216Z,44.65
2022-08-30T15:16:15.861Z,44.63
2022-08-30T15:18:42.554Z,44.54
2022-08-30T15:21:10.954Z,44.59
2022-08-30T15:23:39.268Z,44.93
2022-08-30T15:26:07.094Z,45.10
2022-08-30T15:28:34.834Z,45.34
2022-08-30T15:31:08.261Z,44.65
2022-08-30T15:33:35.726Z,44.78
2022-08-30T15:36:03.325Z,44.53
2022-08-30T15:38:31.137Z,44.39
2022-08-30T15:41:02.167Z,44.02
2022-08-30T15:43:28.911Z,44.27
2022-08-30T15:45:56.458Z,45.20
2022-08-30T15:48:23.839Z,45.20
2022-08-30T15:50:58.211Z,45.27
2022-08-30T15:53:24.806Z,44.78
2022-08-30T15:55:51.773Z,45.17
2022-08-30T15:58:19.012Z,45.62
2022-08-30T16:00:45.983Z,45.04
2022-08-30T16:03:13.002Z,45.59
2022-08-30T16:05:39.703Z,45.59
2022-08-30T16:08:06.345Z,45.32
2022-08-30T16:10:33.033Z,44.88
2022-08-30T16:13:01.630Z,45.76
2022-08-30T16:15:29.572Z,45.77
2022-08-30T16:17:56.282Z,46.35
2022-08-30T16:20:24.754Z,46.44
2022-08-30T16:22:52.095Z,46.88
2022-08-30T16:25:18.713Z,47.03
2022-08-30T16:27:45.398Z,46.64
2022-08-30T16:30:13.090Z,46.64
2022-08-30T16:32:39.957Z,46.11
2022-08-30T16:35:07.898Z,46.17
2022-08-30T16:37:34.639Z,46.29
2022-08-30T16:40:01.599Z,46.64
2022-08-30T16:42:28.375Z,47.10
2022-08-30T16:44:55.669Z,47.68
2022-08-30T16:47:22.440Z,47.44
2022-08-30T16:49:49.570Z,47.72
2022-08-30T16:52:17.130Z,47.70
2022-08-30T16:54:45.080Z,47.56
2022-08-30T16:57:12.325Z,47.85
2022-08-30T16:59:39.023Z,47.58
2022-08-30T17:02:05.707Z,47.77
2022-08-30T17:04:32.773Z,47.63
2022-08-30T17:06:59.434Z,48.39
2022-08-30T17:09:26.061Z,48.61
2022-08-30T17:11:53.046Z,48.23
2022-08-30T17:14:28.203Z,48.42
2022-08-30T17:17:00.697Z,48.28
2022-08-30T17:19:28.622Z,48.18
2022-08-30T17:21:56.278Z,48.43
2022-08-30T17:24:22.966Z,48.80
2022-08-30T17:26:51.370Z,48.47
2022-08-30T17:29:18.166Z,48.59
2022-08-30T17:31:50.926Z,48.57
2022-08-30T17:34:21.214Z,48.47
2022-08-30T17:36:49.870Z,48.73
2022-08-30T17:39:16.610Z,48.21
2022-08-30T17:41:50.239Z,48.22
2022-08-30T17:44:19.107Z,48.64
2022-08-30T17:46:45.804Z,48.56
2022-08-30T17:49:13.095Z,48.27
2022-08-30T17:51:42.978Z,48.42
2022-08-30T17:54:12.731Z,48.33
2022-08-30T17:56:41.118Z,48.83
2022-08-30T17:59:09.946Z,48.72
2022-08-30T18:01:37.339Z,48.90
2022-08-30T18:04:06.081Z,48.64
2022-08-30T18:06:51.769Z,49.11
2022-08-30T18:09:18.450Z,49.22
2022-08-30T18:11:45.050Z,49.34
2022-08-30T18:14:12.894Z,49.71
2022-08-30T18:16:49.636Z,49.43
2022-08-30T18:19:21.358Z,49.58
2022-08-30T18:21:48.186Z,49.53
2022-08-30T18:24:16.659Z,49.87
2022-08-30T18:26:43.375Z,50.54
2022-08-30T18:29:10.931Z,50.80
2022-08-30T18:31:37.660Z,51.13
2022-08-30T18:34:04.476Z,51.09
2022-08-30T18:36:31.147Z,51.09
2022-08-30T18:38:58.320Z,50.90
2022-08-30T18:41:26.004Z,50.80
2022-08-30T18:44:11.016Z,50.92
2022-08-30T18:47:31.858Z,51.17
2022-08-30T18:49:26.866Z,50.79
2022-08-30T18:51:54.171Z,51.00
2022-08-30T18:54:20.992Z,50.75
2022-08-30T18:56:47.998Z,50.39
2022-08-30T18:59:15.647Z,50.25
2022-08-30T19:01:42.631Z,50.60
2022-08-30T19:04:11.435Z,51.05
2022-08-30T19:06:57.075Z,51.23
2022-08-30T19:09:23.741Z,51.16
2022-08-30T19:11:50.484Z,51.36
2022-08-30T19:14:19.133Z,51.28
2022-08-30T19:16:45.762Z,51.51
2022-08-30T19:19:12.979Z,51.75
2022-08-30T19:21:39.730Z,52.09
2022-08-30T19:24:06.779Z,51.95
2022-08-30T19:26:35.637Z,51.81
2022-08-30T19:29:02.378Z,51.88
2022-08-30T19:31:29.026Z,52.07
2022-08-30T19:33:56.645Z,52.08
2022-08-30T19:36:24.363Z,52.22
2022-08-30T19:38:51.981Z,52.32
2022-08-30T19:41:22.015Z,52.34
2022-08-30T19:43:49.827Z,52.66
2022-08-30T19:46:16.486Z,52.60
2022-08-30T19:48:43.261Z,52.83
2022-08-30T19:51:14.532Z,52.25
2022-08-30T19:53:41.934Z,52.44
2022-08-30T19:56:08.734Z,52.45
2022-08-30T19:58:35.394Z,52.07
2022-08-30T20:01:12.296Z,51.87
2022-08-30T20:03:51.924Z,52.09
2022-08-30T20:06:19.650Z,51.93
2022-08-30T20:08:47.496Z,52.02
2022-08-30T20:11:17.105Z,51.80
2022-08-30T20:13:44.858Z,52.08
2022-08-30T20:16:13.187Z,52.05
2022-08-30T20:18:41.632Z,51.92
2022-08-30T20:21:13.518Z,52.06
2022-08-30T20:23:42.026Z,52.17
2022-08-30T20:26:10.425Z,52.00
2022-08-30T20:28:37.790Z,51.75
2022-08-30T20:31:06.293Z,51.50
2022-08-30T20:33:37.464Z,51.78
2022-08-30T20:36:06.418Z,51.91
2022-08-30T20:38:33.150Z,51.82
2022-08-30T20:41:01.123Z,52.10
2022-08-30T20:43:29.853Z,52.18
2022-08-30T20:45:57.045Z,52.33
2022-08-30T20:48:28.541Z,52.66
2022-08-30T20:50:55.160Z,52.69
2022-08-30T20:53:21.750Z,52.63
2022-08-30T20:55:48.359Z,52.98
2022-08-30T20:58:15.371Z,52.91
2022-08-30T21:00:46.017Z,53.17
2022-08-30T21:03:26.092Z,53.13
2022-08-30T21:05:55.527Z,53.15
2022-08-30T21:08:22.334Z,52.95
2022-08-30T21:10:49.154Z,53.08
2022-08-30T21:13:15.809Z,53.19
2022-08-30T21:15:45.978Z,53.59
2022-08-30T21:18:14.300Z,53.13
2022-08-30T21:20:41.678Z,52.94
2022-08-30T21:23:08.716Z,53.13
2022-08-30T21:25:41.178Z,52.76
2022-08-30T21:28:08.056Z,53.25
2022-08-30T21:30:35.806Z,53.29
2022-08-30T21:33:04.047Z,52.89
2022-08-30T21:35:49.305Z,52.88
2022-08-30T21:38:16.696Z,52.87
2022-08-30T21:40:43.793Z,53.35
2022-08-30T21:43:10.788Z,53.64
2022-08-30T21:45:39.026Z,53.38
2022-08-30T21:48:06.221Z,53.50
2022-08-30T21:50:33.570Z,53.41
2022-08-30T21:53:01.052Z,53.40
2022-08-30T21:55:27.726Z,53.15
2022-08-30T21:57:55.174Z,53.35
2022-08-30T22:00:22.128Z,53.61
2022-08-30T22:02:49.231Z,53.30
2022-08-30T22:05:20.255Z,53.29
2022-08-30T22:07:46.976Z,53.36
2022-08-30T22:10:13.662Z,53.63
2022-08-30T22:12:41.480Z,53.68
2022-08-30T22:15:09.345Z,53.67
2022-08-30T22:17:36.189Z,53.80
2022-08-30T22:20:05.785Z,53.73
2022-08-30T22:22:33.815Z,53.79
2022-08-30T22:25:00.423Z,53.54
2022-08-30T22:27:27.070Z,53.83
2022-08-30T22:29:53.698Z,53.39
2022-08-30T22:32:21.116Z,53.80
2022-08-30T22:34:47.949Z,53.75
2022-08-30T22:37:14.560Z,53.54
2022-08-30T22:39:41.162Z,53.74
2022-08-30T22:42:09.816Z,53.88
2022-08-30T22:44:36.495Z,53.63
2022-08-30T22:47:03.203Z,53.35
2022-08-30T22:49:29.848Z,53.57
2022-08-30T22:51:56.440Z,53.76
2022-08-30T22:54:23.082Z,53.56
2022-08-30T22:56:49.976Z,53.37
2022-08-30T22:59:16.630Z,53.29
2022-08-30T23:01:43.439Z,53.38
2022-08-30T23:04:11.773Z,54.01
2022-08-30T23:06:39.223Z,54.01
2022-08-30T23:09:07.005Z,53.89
2022-08-30T23:11:34.032Z,54.14
2022-08-30T23:14:02.090Z,54.42
2022-08-30T23:16:29.024Z,54.12
2022-08-30T23:18:55.876Z,54.22
2022-08-30T23:21:26.496Z,54.61
2022-08-30T23:24:13.029Z,54.14
2022-08-30T23:26:59.396Z,54.44
2022-08-30T23:29:45.536Z,54.56
2022-08-30T23:32:31.346Z,54.32
2022-08-30T23:35:16.435Z,54.32
2022-08-30T23:38:01.600Z,54.46
2022-08-30T23:40:47.110Z,54.69
2022-08-30T23:43:32.296Z,54.46
2022-08-30T23:46:19.167Z,54.29
2022-08-30T23:49:06.188Z,54.47
2022-08-30T23:51:52.202Z,54.37
2022-08-30T23:54:37.469Z,54.62
2022-08-30T23:57:23.370Z,54.39
